Latest Weather Observations for Ocean Reef

IDW60801

Issued at 3:23 am WST Tuesday 26 October 2021 (issued every 10 minutes, with the page automatically refreshed every 10 minutes)

About weather observations | Map of weather stations | Latest weather observations for WA | Other Formats
Station Details ID: 009214 Name: OCEAN REEF Lat: -31.76 Lon: 115.73 Height: 10.0 m
Data from the previous 72 hours. | See also: Recent months at Ocean Reef
Date/Time
WST
Temp
°C
App
Temp
°C
Dew
Point
°C
Rel
Hum
%
Delta-T
°C
Wind Press
QNH
hPa
Press
MSL
hPa
Rain since
9am
mm
Dir  Spd
km/h
Gust
km/h
Spd
kts
Gust
kts
26/03:00am - - - - - NE 13 17 7 9 - - -
26/02:30am - - - - - ENE 9 13 5 7 - - -
26/02:00am - - - - - ENE 13 15 7 8 - - -
26/01:30am - - - - - NNE 13 20 7 11 - - -
26/01:00am - - - - - ENE 13 15 7 8 - - -
26/12:30am - - - - - SE 13 20 7 11 - - -
26/12:00am - - - - - S 22 32 12 17 - - -
 
Date/Time
WST
Temp
°C
App
Temp
°C
Dew
Point
°C
Rel
Hum
%
Delta-T
°C
Wind Press
QNH
hPa
Press
MSL
hPa
Rain since
9am
mm
Dir  Spd
km/h
Gust
km/h
Spd
kts
Gust
kts
25/11:30pm - - - - - SSW 30 37 16 20 - - -
25/11:00pm - - - - - S 28 33 15 18 - - -
25/10:30pm - - - - - SW 32 39 17 21 - - -
25/10:00pm - - - - - SSW 22 30 12 16 - - -
25/09:30pm - - - - - SW 26 41 14 22 - - -
25/09:00pm - - - - - SSW 26 33 14 18 - - -
25/08:30pm - - - - - SSW 24 32 13 17 - - -
25/08:00pm - - - - - SSW 30 37 16 20 - - -
25/07:30pm - - - - - SW 24 32 13 17 - - -
25/07:00pm - - - - - SSW 22 30 12 16 - - -
25/06:30pm - - - - - SSW 28 35 15 19 - - -
25/06:00pm - - - - - SW 35 46 19 25 - - -
25/05:35pm - - - - - SSW 30 48 16 26 - - -
25/05:30pm - - - - - SSW 30 41 16 22 - - -
25/05:00pm - - - - - SW 28 50 15 27 - - -
25/04:30pm - - - - - SSW 33 50 18 27 - - -
25/04:26pm - - - - - SSW 30 50 16 27 - - -
25/04:00pm - - - - - SSW 35 50 19 27 - - -
25/03:30pm - - - - - SW 33 44 18 24 - - -
25/03:00pm - - - - - SW 26 33 14 18 - - -
25/02:30pm - - - - - SW 28 48 15 26 - - -
25/02:00pm - - - - - SW 22 32 12 17 - - -
25/01:30pm - - - - - WSW 28 33 15 18 - - -
25/01:00pm - - - - - WSW 20 26 11 14 - - -
25/12:30pm - - - - - SW 22 30 12 16 - - -
25/12:00pm - - - - - SW 33 39 18 21 - - -
25/11:45am - - - - - SW 30 48 16 26 - - -
25/11:30am - - - - - SW 26 37 14 20 - - -
25/11:00am - - - - - SW 28 37 15 20 - - -
25/10:30am - - - - - SSW 26 33 14 18 - - -
25/10:00am - - - - - SW 32 39 17 21 - - -
25/09:30am - - - - - SW 32 39 17 21 - - -
25/09:00am - - - - - SW 33 41 18 22 - - -
25/08:30am - - - - - SW 35 48 19 26 - - -
25/08:00am - - - - - SW 39 50 21 27 - - -
25/07:30am - - - - - SW 33 41 18 22 - - -
25/07:00am - - - - - SW 37 48 20 26 - - -
25/06:30am - - - - - WSW 35 48 19 26 - - -
25/06:26am - - - - - WSW 24 46 13 25 - - -
25/06:00am - - - - - W 15 26 8 14 - - -
25/05:30am - - - - - WSW 24 30 13 16 - - -
25/05:00am - - - - - SW 24 30 13 16 - - -
25/04:30am - - - - - WSW 28 33 15 18 - - -
25/04:00am - - - - - SW 22 30 12 16 - - -
25/03:30am - - - - - WSW 22 30 12 16 - - -
25/03:00am - - - - - WSW 15 17 8 9 - - -
25/02:30am - - - - - SW 9 11 5 6 - - -
25/02:00am - - - - - SW 17 20 9 11 - - -
25/01:30am - - - - - SW 17 20 9 11 - - -
25/01:00am - - - - - SW 17 20 9 11 - - -
25/12:30am - - - - - SSW 17 20 9 11 - - -
25/12:00am - - - - - SW 20 26 11 14 - - -
 
Date/Time
WST
Temp
°C
App
Temp
°C
Dew
Point
°C
Rel
Hum
%
Delta-T
°C
Wind Press
QNH
hPa
Press
MSL
hPa
Rain since
9am
mm
Dir  Spd
km/h
Gust
km/h
Spd
kts
Gust
kts
24/11:30pm - - - - - SW 24 28 13 15 - - -
24/11:00pm - - - - - SSW 24 32 13 17 - - -
24/10:30pm - - - - - SW 28 32 15 17 - - -
24/10:00pm - - - - - SSW 28 33 15 18 - - -
24/09:30pm - - - - - SSW 30 35 16 19 - - -
24/09:00pm - - - - - SW 28 32 15 17 - - -
24/08:30pm - - - - - SSW 24 28 13 15 - - -
24/08:00pm - - - - - SSW 24 30 13 16 - - -
24/07:30pm - - - - - SSW 28 33 15 18 - - -
24/07:00pm - - - - - SSW 28 32 15 17 - - -
24/06:30pm - - - - - SSW 26 33 14 18 - - -
24/06:00pm - - - - - SSW 32 35 17 19 - - -
24/05:30pm - - - - - SSW 30 35 16 19 - - -
24/05:00pm - - - - - SSW 32 37 17 20 - - -
24/04:30pm - - - - - SSW 30 37 16 20 - - -
24/04:00pm - - - - - SSW 30 35 16 19 - - -
24/03:30pm - - - - - SSW 28 35 15 19 - - -
24/03:00pm - - - - - SW 32 37 17 20 - - -
24/02:30pm - - - - - SW 26 32 14 17 - - -
24/02:00pm - - - - - SSW 17 22 9 12 - - -
24/01:30pm - - - - - SW 17 20 9 11 - - -
24/01:00pm - - - - - SW 13 15 7 8 - - -
24/12:30pm - - - - - SSW 9 11 5 6 - - -
24/12:00pm - - - - - SSW 9 11 5 6 - - -
24/11:30am - - - - - SW 9 11 5 6 - - -
24/11:00am - - - - - SW 9 11 5 6 - - -
24/10:30am - - - - - SW 9 11 5 6 - - -
24/10:00am - - - - - WSW 11 17 6 9 - - -
24/09:30am - - - - - WSW 11 15 6 8 - - -
24/09:00am - - - - - WNW 9 19 5 10 - - -
24/08:30am - - - - - W 2 7 1 4 - - -
24/08:00am - - - - - WSW 7 11 4 6 - - -
24/07:30am - - - - - CALM 0 4 0 2 - - -
24/07:00am - - - - - E 2 7 1 4 - - -
24/06:30am - - - - - E 9 11 5 6 - - -
24/06:00am - - - - - ESE 13 13 7 7 - - -
24/05:30am - - - - - E 13 15 7 8 - - -
24/05:00am - - - - - E 11 13 6 7 - - -
24/04:30am - - - - - SE 6 9 3 5 - - -
24/04:00am - - - - - E 9 11 5 6 - - -
24/03:30am - - - - - ESE 9 11 5 6 - - -
24/03:00am - - - - - SE 11 13 6 7 - - -
24/02:30am - - - - - SSE 9 11 5 6 - - -
24/02:00am - - - - - SSE 9 9 5 5 - - -
24/01:30am - - - - - SE 9 9 5 5 - - -
24/01:00am - - - - - SSE 9 9 5 5 - - -
24/12:30am - - - - - SE 9 11 5 6 - - -
24/12:00am - - - - - SSE 11 11 6 6 - - -
 
Date/Time
WST
Temp
°C
App
Temp
°C
Dew
Point
°C
Rel
Hum
%
Delta-T
°C
Wind Press
QNH
hPa
Press
MSL
hPa
Rain since
9am
mm
Dir  Spd
km/h
Gust
km/h
Spd
kts
Gust
kts
23/11:30pm - - - - - SSE 13 15 7 8 - - -
23/11:00pm - - - - - SSE 15 19 8 10 - - -
23/10:30pm - - - - - SSE 15 17 8 9 - - -
23/10:00pm - - - - - SSE 17 22 9 12 - - -
23/09:30pm - - - - - SSE 17 20 9 11 - - -
23/09:00pm - - - - - SSE 15 19 8 10 - - -
23/08:30pm - - - - - SSE 17 20 9 11 - - -
23/08:00pm - - - - - SSE 19 24 10 13 - - -
23/07:30pm - - - - - S 24 30 13 16 - - -
23/07:00pm - - - - - S 24 33 13 18 - - -
23/06:30pm - - - - - S 30 35 16 19 - - -
23/06:00pm - - - - - S 32 39 17 21 - - -
23/05:30pm - - - - - S 30 35 16 19 - - -
23/05:00pm - - - - - S 28 35 15 19 - - -
23/04:30pm - - - - - S 28 33 15 18 - - -
23/04:00pm - - - - - S 28 35 15 19 - - -
23/03:30pm - - - - - S 28 33 15 18 - - -
23/03:00pm - - - - - S 26 33 14 18 - - -
23/02:30pm - - - - - S 26 30 14 16 - - -
23/02:00pm - - - - - S 24 28 13 15 - - -
23/01:30pm - - - - - SSW 26 32 14 17 - - -
23/01:00pm - - - - - SSW 24 28 13 15 - - -
23/12:30pm - - - - - SSW 22 26 12 14 - - -
23/12:00pm - - - - - SSW 24 28 13 15 - - -
23/11:30am - - - - - SW 11 20 6 11 - - -
23/11:00am - - - - - ENE 15 24 8 13 - - -
23/10:30am - - - - - NE 11 22 6 12 - - -
23/10:00am - - - - - ENE 11 20 6 11 - - -
23/09:30am - - - - - E 15 22 8 12 - - -
23/09:00am - - - - - ENE 15 28 8 15 - - -
23/08:30am - - - - - ENE 19 26 10 14 - - -
23/08:00am - - - - - ENE 20 28 11 15 - - -
23/07:30am - - - - - ENE 22 32 12 17 - - -
23/07:00am - - - - - E 15 22 8 12 - - -
23/06:30am - - - - - E 11 17 6 9 - - -
23/06:00am - - - - - ESE 11 19 6 10 - - -
23/05:30am - - - - - ESE 15 20 8 11 - - -
23/05:00am - - - - - ESE 17 24 9 13 - - -
23/04:30am - - - - - E 13 17 7 9 - - -
23/04:00am - - - - - E 15 19 8 10 - - -
23/03:30am - - - - - ESE 15 20 8 11 - - -

Other formats

Comma delimited format used in spreadsheet applications
http://www.bom.gov.au/fwo/IDW60801/IDW60801.94607.axf

JavaScript Object Notation format (JSON) in row-major order
http://www.bom.gov.au/fwo/IDW60801/IDW60801.94607.json

Data quality

Most of these data are generated automatically and are frequently updated. Quality checks on data are not normally performed. It is possible for incorrect values to appear. Refer to information at About Latest Weather Observations and please check the disclaimer before using these data.